Terminal Aerodrome Forecast
Issued by NWS

Home | Current Version | Previous Version | Text Only | Print | Product List | Glossary On
Versions: 1 2 3 4 5 6 7 8 9 10 11 12 13
000
FTUS46 KPDT 260520
TAFPSC
TAF
KPSC 260520Z 2606/2706 21005KT P6SM BKN080
      TEMPO 2606/2607 -SHRA
     FM262000 32008KT P6SM VCSH SCT050 BKN090=

USA.gov is the U.S. government's official web portal to all federal, state and local government web resources and services.